Time,TemperatureF,DewpointF,PressureIn,WindDirection,WindDirectionDegrees,WindSpeedMPH,WindSpeedGustMPH,Humidity,HourlyPrecipIn,Conditions,Clouds,dailyrainin,SoftwareType,DateUTC
2013-08-11 00:03:00,65.8,-99.9,-100.00,North,-999,0.0,0.0,-999,0.00,,,-99.99,WeatherLink 5.4,2013-08-11 04:03:00,
2013-08-11 00:33:00,64.0,-99.9,-100.00,North,-999,0.0,0.0,-999,0.00,,,-99.99,WeatherLink 5.4,2013-08-11 04:33:00,
2013-08-11 01:03:00,64.0,-99.9,-100.00,North,-999,0.0,0.0,-999,0.00,,,-99.99,WeatherLink 5.4,2013-08-11 05:03:00,
2013-08-11 01:33:00,64.2,-99.9,-100.00,North,-999,0.0,0.0,-999,0.00,,,-99.99,WeatherLink 5.4,2013-08-11 05:33:00,
2013-08-11 02:03:00,64.3,-99.9,-100.00,North,-999,0.0,0.0,-999,0.00,,,-99.99,WeatherLink 5.4,2013-08-11 06:03:00,
2013-08-11 02:33:00,64.0,-99.9,-100.00,North,-999,0.0,0.0,-999,0.00,,,-99.99,WeatherLink 5.4,2013-08-11 06:33:00,
2013-08-11 03:03:00,64.2,-99.9,-100.00,North,-999,0.0,0.0,-999,0.00,,,-99.99,WeatherLink 5.4,2013-08-11 07:03:00,
2013-08-11 03:33:00,64.2,-99.9,-100.00,North,-999,0.0,0.0,-999,0.00,,,-99.99,WeatherLink 5.4,2013-08-11 07:33:00,
2013-08-11 04:33:00,63.8,-99.9,-100.00,North,-999,0.0,0.0,-999,0.00,,,-99.99,WeatherLink 5.4,2013-08-11 08:33:00,
2013-08-11 05:30:00,63.2,-99.9,-100.00,North,-999,0.0,0.0,-999,0.00,,,-99.99,WeatherLink 5.4,2013-08-11 09:30:00,
2013-08-11 06:00:00,62.9,-99.9,-100.00,North,-999,0.0,0.0,-999,0.00,,,-99.99,WeatherLink 5.4,2013-08-11 10:00:00,
2013-08-11 06:30:00,62.0,-99.9,-100.00,North,-999,0.0,0.0,-999,0.00,,,-99.99,WeatherLink 5.4,2013-08-11 10:30:00,
2013-08-11 07:00:00,61.2,-99.9,-100.00,North,-999,0.0,0.0,-999,0.00,,,-99.99,WeatherLink 5.4,2013-08-11 11:00:00,
2013-08-11 07:30:00,60.7,-99.9,-100.00,North,-999,0.0,0.0,-999,0.00,,,-99.99,WeatherLink 5.4,2013-08-11 11:30:00,
2013-08-11 08:03:00,60.8,-99.9,-100.00,North,-999,0.0,0.0,-999,0.00,,,-99.99,WeatherLink 5.4,2013-08-11 12:03:00,
2013-08-11 08:33:00,62.6,-99.9,-100.00,North,-999,0.0,0.0,-999,0.00,,,-99.99,WeatherLink 5.4,2013-08-11 12:33:00,
2013-08-11 09:03:00,62.6,-99.9,-100.00,North,-999,0.0,0.0,-999,0.00,,,-99.99,WeatherLink 5.4,2013-08-11 13:03:00,
2013-08-11 09:33:00,65.0,-99.9,-100.00,North,-999,0.0,0.0,-999,0.00,,,-99.99,WeatherLink 5.4,2013-08-11 13:33:00,
2013-08-11 10:03:00,65.7,-99.9,-100.00,North,-999,0.0,0.0,-999,0.00,,,-99.99,WeatherLink 5.4,2013-08-11 14:03:00,
2013-08-11 10:33:00,68.3,-99.9,-100.00,North,-999,0.0,0.0,-999,0.00,,,-99.99,WeatherLink 5.4,2013-08-11 14:33:00,
2013-08-11 11:03:00,69.3,-99.9,-100.00,North,-999,0.0,0.0,-999,0.00,,,-99.99,WeatherLink 5.4,2013-08-11 15:03:00,
2013-08-11 11:30:00,69.3,-99.9,-100.00,North,-999,0.0,0.0,-999,0.00,,,-99.99,WeatherLink 5.4,2013-08-11 15:30:00,
2013-08-11 12:03:00,69.7,-99.9,-100.00,North,-999,0.0,0.0,-999,0.00,,,-99.99,WeatherLink 5.4,2013-08-11 16:03:00,
2013-08-11 12:33:00,71.3,-99.9,-100.00,SW,225,0.0,4.0,-999,0.00,,,-99.99,WeatherLink 5.4,2013-08-11 16:33:00,
2013-08-11 13:03:00,72.9,-99.9,-100.00,NNW,337,0.0,4.0,-999,0.00,,,-99.99,WeatherLink 5.4,2013-08-11 17:03:00,
2013-08-11 13:33:00,83.7,-99.9,-100.00,West,270,0.0,4.0,-999,0.00,,,-99.99,WeatherLink 5.4,2013-08-11 17:33:00,
2013-08-11 14:03:00,83.7,-99.9,-100.00,West,270,0.0,4.0,-999,0.00,,,-99.99,WeatherLink 5.4,2013-08-11 18:03:00,
2013-08-11 14:33:00,90.7,-99.9,-100.00,SW,225,0.0,7.0,-999,0.00,,,-99.99,WeatherLink 5.4,2013-08-11 18:33:00,
2013-08-11 15:03:00,78.8,-99.9,-100.00,SW,225,0.0,5.0,-999,0.00,,,-99.99,WeatherLink 5.4,2013-08-11 19:03:00,
2013-08-11 15:33:00,75.3,-99.9,-100.00,North,-999,0.0,1.0,-999,0.00,,,-99.99,WeatherLink 5.4,2013-08-11 19:33:00,
2013-08-11 16:03:00,79.4,-99.9,-100.00,WNW,292,0.0,1.0,-999,0.00,,,-99.99,WeatherLink 5.4,2013-08-11 20:03:00,
2013-08-11 16:33:00,78.7,-99.9,-100.00,North,-999,0.0,1.0,-999,0.00,,,-99.99,WeatherLink 5.4,2013-08-11 20:33:00,
2013-08-11 17:03:00,77.6,-99.9,-100.00,WNW,292,0.0,1.0,-999,0.00,,,-99.99,WeatherLink 5.4,2013-08-11 21:03:00,
2013-08-11 17:33:00,76.6,-99.9,-100.00,North,-999,0.0,0.0,-999,0.00,,,-99.99,WeatherLink 5.4,2013-08-11 21:33:00,
2013-08-11 18:03:00,78.5,-99.9,-100.00,North,-999,0.0,1.0,-999,0.00,,,-99.99,WeatherLink 5.4,2013-08-11 22:03:00,
2013-08-11 18:33:00,79.1,-99.9,-100.00,WNW,292,1.0,9.0,-999,0.00,,,-99.99,WeatherLink 5.4,2013-08-11 22:33:00,
2013-08-11 19:03:00,78.1,-99.9,-100.00,NNE,22,1.0,6.0,-999,0.00,,,-99.99,WeatherLink 5.4,2013-08-11 23:03:00,
2013-08-11 19:33:00,77.8,-99.9,-100.00,NNE,22,0.0,5.0,-999,0.00,,,-99.99,WeatherLink 5.4,2013-08-11 23:33:00,
2013-08-11 20:03:00,76.3,-99.9,-100.00,North,0,0.0,4.0,-999,0.00,,,-99.99,WeatherLink 5.4,2013-08-12 00:03:00,
2013-08-11 20:33:00,76.3,-99.9,-100.00,North,0,0.0,4.0,-999,0.00,,,-99.99,WeatherLink 5.4,2013-08-12 00:33:00,
2013-08-11 21:03:00,71.5,-99.9,-100.00,North,-999,0.0,0.0,-999,0.00,,,-99.99,WeatherLink 5.4,2013-08-12 01:03:00,
2013-08-11 21:33:00,68.3,-99.9,-100.00,North,-999,0.0,0.0,-999,0.00,,,-99.99,WeatherLink 5.4,2013-08-12 01:33:00,
2013-08-11 22:00:00,68.3,-99.9,-100.00,North,-999,0.0,0.0,-999,0.00,,,-99.99,WeatherLink 5.4,2013-08-12 02:00:00,
2013-08-11 22:03:00,68.3,-99.9,-100.00,North,-999,0.0,0.0,-999,0.00,,,-99.99,WeatherLink 5.4,2013-08-12 02:03:00,
2013-08-11 22:33:00,66.8,-99.9,-100.00,North,-999,0.0,0.0,-999,0.00,,,-99.99,WeatherLink 5.4,2013-08-12 02:33:00,
2013-08-11 23:03:00,64.6,-99.9,-100.00,North,-999,0.0,0.0,-999,0.00,,,-99.99,WeatherLink 5.4,2013-08-12 03:03:00,